Time;durP1;ratioP1;P1;durP2;ratioP2;P2;SDS_P1;SDS_P2;PMS_P1;PMS_P2;Temp;Humidity;BMP_temperature;BMP_pressure;BME280_temperature;BME280_humidity;BME280_pressure;Samples;Min_cycle;Max_cycle;Signal;HPM_P1;HPM_P2
2024/04/17 00:00:08;;;;;;;;;;;;;;;9.53;62.78;100442.81;5230143;27;20002;-90
2024/04/17 00:02:34;;;;;;;;;;;;;;;9.53;62.79;100445.47;5232584;27;19932;-89
2024/04/17 00:04:59;;;;;;;;;;;;;;;9.53;62.11;100451.63;5223391;27;19936;-90
2024/04/17 00:07:24;;;;;;;;;;;;;;;9.54;62.11;100457.78;5231552;27;20544;-89
2024/04/17 00:09:49;;;;;;;;;;;;;;;9.55;62.24;100459.41;5227621;27;19935;-89
2024/04/17 00:12:14;;;;;;;;;;;;;;;9.54;62.19;100453.25;5230899;27;20010;-90
2024/04/17 00:14:39;;;;;;;;;;;;;;;9.53;62.34;100461.53;5228426;27;19932;-89
2024/04/17 00:17:05;;;;;;;;;;;;;;;9.49;62.89;100460.38;5231727;27;19932;-90
2024/04/17 00:19:30;;;;;;;;;;;;;;;9.45;62.56;100465.41;5226158;27;19965;-90
2024/04/17 00:21:55;;;;;;;;;;;;;;;9.45;62.49;100460.06;5199304;27;19939;-89
2024/04/17 00:24:21;;;;;;;;;;;;;;;9.42;62.76;100460.56;5221703;27;20338;-88
2024/04/17 00:26:46;;;;;;;;;;;;;;;9.41;62.91;100464.31;5226024;27;20452;-89
2024/04/17 00:29:11;;;;;;;;;;;;;;;9.42;62.75;100459.75;5230351;27;19936;-89
2024/04/17 00:31:36;;;;;;;;;;;;;;;9.41;62.50;100466.97;5224989;27;19950;-89
2024/04/17 00:34:02;;;;;;;;;;;;;;;9.45;62.47;100467.28;5226466;27;20281;-89
2024/04/17 00:36:27;;;;;;;;;;;;;;;9.45;62.67;100461.94;5232275;27;19951;-90
2024/04/17 00:38:52;;;;;;;;;;;;;;;9.42;62.41;100468.59;5229570;27;19960;-89
2024/04/17 00:41:17;;;;;;;;;;;;;;;9.41;62.45;100472.31;5225132;27;19945;-90
2024/04/17 00:43:42;;;;;;;;;;;;;;;9.41;62.33;100472.31;5232666;27;19950;-89
2024/04/17 00:46:10;;;;;;;;;;;;;;;9.41;62.64;100474.19;5232587;27;20430;-89
2024/04/17 00:48:36;;;;;;;;;;;;;;;9.44;62.30;100476.38;5237655;27;20051;-90
2024/04/17 00:51:01;;;;;;;;;;;;;;;9.43;62.55;100485.44;5227960;27;19947;-90
2024/04/17 00:53:30;;;;;;;;;;;;;;;9.43;62.34;100480.09;5224818;27;19943;-90
2024/04/17 00:55:56;;;;;;;;;;;;;;;9.38;62.83;100478.97;5209304;27;19936;-90
2024/04/17 00:58:22;;;;;;;;;;;;;;;9.34;62.84;100475.19;5228633;27;19938;-89
2024/04/17 01:00:47;;;;;;;;;;;;;;;9.36;62.32;100480.28;5228657;27;20452;-89
2024/04/17 01:03:13;;;;;;;;;;;;;;;9.36;62.40;100480.28;5229456;27;19944;-89
2024/04/17 01:05:38;;;;;;;;;;;;;;;9.41;62.08;100483.03;5225243;27;19942;-90
2024/04/17 01:08:06;;;;;;;;;;;;;;;9.44;62.12;100484.38;5230400;27;20069;-89
2024/04/17 01:10:31;;;;;;;;;;;;;;;9.46;61.67;100487.63;5225252;27;19932;-89
2024/04/17 01:12:56;;;;;;;;;;;;;;;9.43;61.50;100483.56;5226335;27;19964;-89
2024/04/17 01:15:21;;;;;;;;;;;;;;;9.43;61.44;100493.47;5226808;27;19932;-90
2024/04/17 01:17:47;;;;;;;;;;;;;;;9.42;61.49;100483.81;5234577;27;20332;-90
2024/04/17 01:20:12;;;;;;;;;;;;;;;9.40;61.49;100489.44;5227330;27;20050;-90
2024/04/17 01:22:37;;;;;;;;;;;;;;;9.40;61.36;100489.44;5226371;27;19946;-90
2024/04/17 01:25:02;;;;;;;;;;;;;;;9.43;61.24;100493.47;5223907;27;21042;-89
2024/04/17 01:27:28;;;;;;;;;;;;;;;9.47;61.20;100491.91;5229057;27;19951;-89
2024/04/17 01:29:53;;;;;;;;;;;;;;;9.48;61.44;100501.56;5231225;27;19940;-89
2024/04/17 01:32:18;;;;;;;;;;;;;;;9.48;61.11;100498.88;5227217;27;19932;-90
2024/04/17 01:34:43;;;;;;;;;;;;;;;9.49;60.99;100503.16;5231479;27;20328;-88
2024/04/17 01:37:08;;;;;;;;;;;;;;;9.47;61.14;100506.09;5231934;27;19974;-89
2024/04/17 01:39:34;;;;;;;;;;;;;;;9.47;60.73;100511.44;5226884;27;19939;-89
2024/04/17 01:41:59;;;;;;;;;;;;;;;9.48;60.96;100512.25;5229627;27;20287;-90
2024/04/17 01:44:24;;;;;;;;;;;;;;;9.47;61.14;100514.13;5230263;27;20028;-90
2024/04/17 01:46:49;;;;;;;;;;;;;;;9.47;61.10;100515.97;5225842;27;19951;-89
2024/04/17 01:49:14;;;;;;;;;;;;;;;9.45;61.26;100523.44;5228096;27;20001;-89
2024/04/17 01:51:39;;;;;;;;;;;;;;;9.41;61.24;100519.66;5227012;27;19950;-90
2024/04/17 01:54:06;;;;;;;;;;;;;;;9.39;61.47;100522.56;5227940;27;20753;-89
2024/04/17 01:56:31;;;;;;;;;;;;;;;9.39;61.41;100518.03;5230028;27;20377;-90
2024/04/17 01:58:56;;;;;;;;;;;;;;;9.39;61.54;100527.91;5231303;27;19932;-89
2024/04/17 02:01:21;;;;;;;;;;;;;;;9.39;61.80;100525.25;5228012;27;20424;-89
2024/04/17 02:03:47;;;;;;;;;;;;;;;9.39;61.67;100526.06;5224284;27;19940;-89
2024/04/17 02:06:13;;;;;;;;;;;;;;;9.39;62.24;100530.59;5229473;27;19943;-89
2024/04/17 02:08:38;;;;;;;;;;;;;;;9.42;61.84;100534.63;5227335;27;19943;-89
2024/04/17 02:11:05;;;;;;;;;;;;;;;9.41;61.88;100523.13;5225315;27;19931;-89
2024/04/17 02:13:30;;;;;;;;;;;;;;;9.44;61.99;100537.88;5226814;27;19938;-90
2024/04/17 02:15:59;;;;;;;;;;;;;;;9.44;62.22;100537.88;5227947;27;20530;-89
2024/04/17 02:18:24;;;;;;;;;;;;;;;9.46;61.80;100541.09;5226059;27;19947;-90
2024/04/17 02:20:50;;;;;;;;;;;;;;;9.44;61.57;100538.69;5222970;27;19932;-90
2024/04/17 02:23:15;;;;;;;;;;;;;;;9.39;61.95;100541.28;5229945;27;20396;-90
2024/04/17 02:25:40;;;;;;;;;;;;;;;9.24;62.36;100544.53;5226534;27;19959;-90
2024/04/17 02:28:05;;;;;;;;;;;;;;;9.17;62.15;100543.09;5225405;27;19932;-89
2024/04/17 02:30:31;;;;;;;;;;;;;;;9.11;62.08;100547.53;5228879;27;19940;-90
2024/04/17 02:32:56;;;;;;;;;;;;;;;9.04;62.79;100552.25;5224404;27;19931;-90
2024/04/17 02:35:21;;;;;;;;;;;;;;;9.00;62.74;100553.78;5225456;27;19939;-90
2024/04/17 02:37:46;;;;;;;;;;;;;;;8.95;62.67;100554.47;5227457;27;20000;-89
2024/04/17 02:40:12;;;;;;;;;;;;;;;8.95;62.53;100559.00;5226053;27;20006;-90
2024/04/17 02:42:37;;;;;;;;;;;;;;;8.94;62.42;100557.41;5225545;27;20545;-90
2024/04/17 02:45:02;;;;;;;;;;;;;;;8.94;62.53;100563.56;5222667;27;19932;-90
2024/04/17 02:47:27;;;;;;;;;;;;;;;8.94;62.33;100560.06;5226482;27;19932;-89
2024/04/17 02:49:53;;;;;;;;;;;;;;;8.95;62.46;100567.03;5228384;27;19938;-90
2024/04/17 02:52:19;;;;;;;;;;;;;;;8.94;62.50;100560.06;5224531;27;20318;-90
2024/04/17 02:54:45;;;;;;;;;;;;;;;8.94;62.42;100571.56;5224963;27;19932;-89
2024/04/17 02:57:11;;;;;;;;;;;;;;;8.93;62.63;100563.78;5227765;27;20308;-89
2024/04/17 02:59:36;;;;;;;;;;;;;;;8.91;62.79;100571.25;5225759;27;19936;-89
2024/04/17 03:02:01;;;;;;;;;;;;;;;8.89;62.46;100568.00;5233371;27;19946;-89
2024/04/17 03:04:26;;;;;;;;;;;;;;;8.87;62.44;100570.13;5229636;27;20035;-90
2024/04/17 03:06:51;;;;;;;;;;;;;;;8.80;63.20;100578.28;5228028;27;20598;-90
2024/04/17 03:09:16;;;;;;;;;;;;;;;8.75;62.89;100576.31;5225856;27;19939;-89
2024/04/17 03:11:42;;;;;;;;;;;;;;;8.75;62.76;100583.53;5231375;27;20017;-89
2024/04/17 03:14:07;;;;;;;;;;;;;;;8.74;62.89;100588.06;5225961;27;19940;-89
2024/04/17 03:16:32;;;;;;;;;;;;;;;8.73;62.81;100586.44;5227789;27;20028;-89
2024/04/17 03:18:57;;;;;;;;;;;;;;;8.73;62.50;100590.97;5205850;27;19939;-89
2024/04/17 03:21:22;;;;;;;;;;;;;;;8.73;62.64;100590.97;5231334;27;19931;-90
2024/04/17 03:23:48;;;;;;;;;;;;;;;8.72;62.53;100589.34;5228369;27;19932;-90
2024/04/17 03:26:13;;;;;;;;;;;;;;;8.64;63.20;100582.53;5227598;27;19935;-89
2024/04/17 03:28:38;;;;;;;;;;;;;;;8.61;62.90;100588.34;5233149;27;20364;-89
2024/04/17 03:31:03;;;;;;;;;;;;;;;8.60;62.97;100589.38;5228081;27;20715;-90
2024/04/17 03:33:29;;;;;;;;;;;;;;;8.58;62.74;100591.50;5233023;27;20034;-90
2024/04/17 03:35:55;;;;;;;;;;;;;;;8.54;62.26;100582.34;5234347;27;19937;-89
2024/04/17 03:38:20;;;;;;;;;;;;;;;8.51;62.32;100596.16;5229126;27;19986;-90
2024/04/17 03:40:45;;;;;;;;;;;;;;;8.47;62.27;100598.50;5233261;27;19955;-89
2024/04/17 03:43:10;;;;;;;;;;;;;;;8.47;62.25;100597.69;5225953;27;20607;-89
2024/04/17 03:45:36;;;;;;;;;;;;;;;8.45;62.26;100595.28;5229498;27;19940;-90
2024/04/17 03:48:01;;;;;;;;;;;;;;;8.46;62.43;100601.41;5226046;27;19991;-89
2024/04/17 03:50:26;;;;;;;;;;;;;;;8.45;62.64;100605.13;5228527;27;19932;-89
2024/04/17 03:52:51;;;;;;;;;;;;;;;8.43;62.62;100609.88;5229913;27;20277;-89
2024/04/17 03:55:17;;;;;;;;;;;;;;;8.41;62.36;100618.13;5234196;27;20377;-89
2024/04/17 03:57:42;;;;;;;;;;;;;;;8.40;62.46;100621.03;5229683;27;20006;-90
2024/04/17 04:00:07;;;;;;;;;;;;;;;8.37;62.82;100618.84;5225440;27;19932;-90
2024/04/17 04:02:32;;;;;;;;;;;;;;;8.32;62.88;100629.41;5235029;27;20294;-89
2024/04/17 04:04:58;;;;;;;;;;;;;;;8.27;63.01;100624.78;5221859;27;20378;-88
2024/04/17 04:07:23;;;;;;;;;;;;;;;8.22;63.03;100629.19;5234629;27;19951;-90
2024/04/17 04:09:49;;;;;;;;;;;;;;;8.17;63.22;100630.69;5223587;27;19947;-89
2024/04/17 04:12:14;;;;;;;;;;;;;;;8.14;63.77;100630.34;5233123;27;20010;-89
2024/04/17 04:14:39;;;;;;;;;;;;;;;8.09;64.18;100633.75;5234430;27;19939;-90
2024/04/17 04:17:04;;;;;;;;;;;;;;;8.11;63.71;100633.50;5225330;27;19940;-90
2024/04/17 04:19:29;;;;;;;;;;;;;;;8.15;63.45;100638.13;5224233;27;20416;-89
2024/04/17 04:21:55;;;;;;;;;;;;;;;8.19;63.22;100649.13;5225065;27;20664;-89
2024/04/17 04:24:20;;;;;;;;;;;;;;;8.25;63.14;100647.38;5220838;27;19939;-89
2024/04/17 04:26:45;;;;;;;;;;;;;;;8.27;63.27;100645.31;5233084;27;19932;-90
2024/04/17 04:29:10;;;;;;;;;;;;;;;8.26;63.33;100654.34;5231281;27;19935;-90
2024/04/17 04:31:35;;;;;;;;;;;;;;;8.22;63.27;100651.34;5227608;27;19932;-90
2024/04/17 04:34:01;;;;;;;;;;;;;;;8.23;63.11;100654.81;5233200;27;19944;-89
2024/04/17 04:36:26;;;;;;;;;;;;;;;8.26;63.18;100647.19;5226525;27;19939;-90
2024/04/17 04:38:51;;;;;;;;;;;;;;;8.31;63.26;100659.81;5227412;27;20455;-89
2024/04/17 04:41:17;;;;;;;;;;;;;;;8.33;62.99;100655.84;5229320;27;19931;-89
2024/04/17 04:43:42;;;;;;;;;;;;;;;8.38;62.71;100657.84;5228945;27;20348;-90
2024/04/17 04:46:07;;;;;;;;;;;;;;;8.34;62.70;100656.69;5233564;27;20385;-90
2024/04/17 04:48:32;;;;;;;;;;;;;;;8.35;62.55;100663.66;5229979;27;19939;-90
2024/04/17 04:50:57;;;;;;;;;;;;;;;8.36;62.67;100666.09;5228764;27;19984;-90
2024/04/17 04:53:22;;;;;;;;;;;;;;;8.34;62.80;100667.38;5228269;27;19943;-90
2024/04/17 04:55:57;;;;;;;;;;;;;;;8.32;62.93;100661.44;5214563;27;19958;-89
2024/04/17 04:58:22;;;;;;;;;;;;;;;8.31;62.80;100671.28;5230502;27;19952;-89
2024/04/17 05:00:47;;;;;;;;;;;;;;;8.32;63.00;100664.09;5222013;27;19959;-89
2024/04/17 05:03:12;;;;;;;;;;;;;;;8.36;62.89;100665.28;5227828;27;19935;-89
2024/04/17 05:05:38;;;;;;;;;;;;;;;8.39;63.03;100670.16;5230237;27;19947;-89
2024/04/17 05:08:03;;;;;;;;;;;;;;;8.45;62.84;100677.22;5228228;27;19935;-89
2024/04/17 05:10:28;;;;;;;;;;;;;;;8.49;62.89;100675.72;5232467;27;19959;-90
2024/04/17 05:12:53;;;;;;;;;;;;;;;8.52;62.53;100669.88;5227389;27;20269;-91
2024/04/17 05:15:19;;;;;;;;;;;;;;;8.54;62.39;100673.13;5202690;27;19956;-91
2024/04/17 05:17:44;;;;;;;;;;;;;;;8.57;62.49;100683.34;5227336;27;20587;-91
2024/04/17 05:20:09;;;;;;;;;;;;;;;8.59;62.36;100678.56;5231043;27;19932;-90
2024/04/17 05:22:34;;;;;;;;;;;;;;;8.64;62.65;100685.91;5231520;27;19959;-91
2024/04/17 05:25:00;;;;;;;;;;;;;;;8.70;62.20;100685.75;5233555;27;20008;-90
2024/04/17 05:27:25;;;;;;;;;;;;;;;8.73;62.40;100693.28;5227242;27;19969;-90
2024/04/17 05:29:50;;;;;;;;;;;;;;;8.76;62.53;100683.97;5232970;27;19932;-91
2024/04/17 05:32:15;;;;;;;;;;;;;;;8.78;62.62;100688.03;5246083;27;19931;-90
2024/04/17 05:34:41;;;;;;;;;;;;;;;8.75;62.60;100685.84;5245373;27;19938;-91
2024/04/17 05:37:06;;;;;;;;;;;;;;;8.79;62.77;100681.63;5244290;27;19931;-91
2024/04/17 05:39:32;;;;;;;;;;;;;;;8.81;62.79;100684.09;5226548;27;19943;-90
2024/04/17 05:41:57;;;;;;;;;;;;;;;8.85;62.61;100695.13;5228574;27;20580;-90
2024/04/17 05:44:22;;;;;;;;;;;;;;;8.87;62.13;100693.00;5235243;27;19932;-90
2024/04/17 05:46:47;;;;;;;;;;;;;;;8.84;61.93;100691.63;5238299;27;19936;-90
2024/04/17 05:49:12;;;;;;;;;;;;;;;8.83;61.93;100700.69;5254746;27;20404;-90
2024/04/17 05:51:38;;;;;;;;;;;;;;;8.83;61.94;100694.53;5237190;27;19942;-91
2024/04/17 05:54:03;;;;;;;;;;;;;;;8.82;61.99;100700.94;5252125;27;19931;-90
2024/04/17 05:56:28;;;;;;;;;;;;;;;8.83;62.13;100705.22;5245274;27;19963;-91
2024/04/17 05:58:53;;;;;;;;;;;;;;;8.83;61.81;100708.72;5246010;27;19938;-90
2024/04/17 06:01:19;;;;;;;;;;;;;;;8.84;62.05;100718.34;5209573;27;19932;-90
2024/04/17 06:03:44;;;;;;;;;;;;;;;8.88;62.20;100710.66;5237202;27;20280;-90
2024/04/17 06:06:09;;;;;;;;;;;;;;;8.93;62.16;100719.59;5227939;27;20385;-91
2024/04/17 06:08:34;;;;;;;;;;;;;;;8.99;62.29;100713.31;5232262;27;19939;-90
2024/04/17 06:10:59;;;;;;;;;;;;;;;9.06;62.19;100707.81;5227155;27;19943;-91
2024/04/17 06:13:25;;;;;;;;;;;;;;;9.08;62.26;100711.06;5224429;27;20071;-91
2024/04/17 06:15:50;;;;;;;;;;;;;;;9.12;62.17;100706.84;5236540;27;19944;-91
2024/04/17 06:18:15;;;;;;;;;;;;;;;9.14;62.26;100694.03;5236578;27;20768;-91
2024/04/17 06:20:41;;;;;;;;;;;;;;;9.13;62.00;100705.78;5210236;27;19931;-90
2024/04/17 06:23:06;;;;;;;;;;;;;;;9.14;61.89;100709.28;5235594;27;19932;-90
2024/04/17 06:25:31;;;;;;;;;;;;;;;9.17;62.47;100708.81;5236697;27;19931;-90
2024/04/17 06:27:56;;;;;;;;;;;;;;;9.21;62.67;100710.78;5239940;27;20007;-91
2024/04/17 06:30:21;;;;;;;;;;;;;;;9.28;62.19;100716.75;5228378;27;20374;-90
2024/04/17 06:32:47;;;;;;;;;;;;;;;9.38;62.36;100711.63;5235868;27;19943;-90
2024/04/17 06:35:12;;;;;;;;;;;;;;;9.50;62.05;100716.88;5233365;27;20505;-91
2024/04/17 06:37:37;;;;;;;;;;;;;;;9.63;62.15;100715.75;5224003;27;19931;-91
2024/04/17 06:40:02;;;;;;;;;;;;;;;9.74;61.32;100717.56;5235959;27;19936;-90
2024/04/17 06:42:28;;;;;;;;;;;;;;;9.83;61.68;100717.97;5226199;27;19943;-90
2024/04/17 06:44:54;;;;;;;;;;;;;;;9.92;61.60;100728.03;5240127;27;20357;-91
2024/04/17 06:47:20;;;;;;;;;;;;;;;9.96;61.06;100725.66;5239932;27;20436;-91
2024/04/17 06:49:46;;;;;;;;;;;;;;;10.04;61.43;100732.47;5235006;27;20004;-91
2024/04/17 06:52:11;;;;;;;;;;;;;;;10.14;60.88;100729.94;5240100;27;19943;-90
2024/04/17 06:54:37;;;;;;;;;;;;;;;10.22;61.11;100733.03;5231524;27;19932;-91
2024/04/17 06:57:02;;;;;;;;;;;;;;;10.35;60.81;100736.44;5238743;27;19965;-90
2024/04/17 06:59:27;;;;;;;;;;;;;;;10.51;60.91;100735.59;5239767;27;19931;-91
2024/04/17 07:01:52;;;;;;;;;;;;;;;10.66;60.56;100734.97;5238253;27;19968;-90
2024/04/17 07:04:18;;;;;;;;;;;;;;;10.83;61.04;100738.41;5228227;27;19940;-90
2024/04/17 07:06:43;;;;;;;;;;;;;;;10.97;60.58;100736.97;5248430;27;19958;-91
2024/04/17 07:09:08;;;;;;;;;;;;;;;11.07;59.59;100739.75;5242940;27;19979;-90
2024/04/17 07:11:33;;;;;;;;;;;;;;;11.17;60.44;100736.41;5244731;27;19939;-91
2024/04/17 07:14:01;;;;;;;;;;;;;;;11.28;60.29;100745.34;5235955;27;19935;-91
2024/04/17 07:16:27;;;;;;;;;;;;;;;11.38;59.95;100748.13;5237086;27;20404;-90
2024/04/17 07:18:52;;;;;;;;;;;;;;;11.44;59.98;100737.19;5243664;27;19935;-90
2024/04/17 07:21:17;;;;;;;;;;;;;;;11.49;59.91;100737.25;5228212;27;19932;-90
2024/04/17 07:23:43;;;;;;;;;;;;;;;11.54;59.81;100744.53;5253809;27;20371;-91
2024/04/17 07:26:09;;;;;;;;;;;;;;;11.59;59.46;100743.78;5238300;27;19932;-90
2024/04/17 07:28:34;;;;;;;;;;;;;;;11.63;59.75;100737.63;5236896;27;19938;-91
2024/04/17 07:31:00;;;;;;;;;;;;;;;11.70;59.52;100740.94;5253497;27;19931;-90
2024/04/17 07:33:25;;;;;;;;;;;;;;;11.75;59.52;100740.97;5254070;27;19932;-90
2024/04/17 07:35:57;;;;;;;;;;;;;;;11.82;59.46;100739.97;5254568;27;19931;-90
2024/04/17 07:38:22;;;;;;;;;;;;;;;11.87;59.90;100742.72;5230576;27;19939;-90
2024/04/17 07:40:54;;;;;;;;;;;;;;;11.95;59.57;100740.34;5235986;27;19932;-90
2024/04/17 07:43:19;;;;;;;;;;;;;;;12.06;59.14;100741.25;5246324;27;19931;-90
2024/04/17 07:45:50;;;;;;;;;;;;;;;12.16;59.43;100743.97;5253394;27;19932;-90
2024/04/17 07:48:15;;;;;;;;;;;;;;;12.24;59.01;100738.16;5246186;27;20002;-91
2024/04/17 07:50:40;;;;;;;;;;;;;;;12.32;59.01;100745.72;5234821;27;20035;-90
2024/04/17 07:53:05;;;;;;;;;;;;;;;12.37;58.26;100745.72;5229508;27;19940;-90
2024/04/17 07:55:32;;;;;;;;;;;;;;;12.43;58.39;100749.28;5245758;27;19931;-91
2024/04/17 07:57:57;;;;;;;;;;;;;;;12.52;57.62;100741.50;5233876;27;19943;-90
2024/04/17 08:00:22;;;;;;;;;;;;;;;12.65;57.80;100736.47;5246433;27;20443;-90
2024/04/17 08:02:48;;;;;;;;;;;;;;;12.75;57.56;100741.09;5233322;27;20293;-90
2024/04/17 08:05:13;;;;;;;;;;;;;;;12.84;57.22;100746.78;5240659;27;19939;-91
2024/04/17 08:07:38;;;;;;;;;;;;;;;12.92;56.86;100747.06;5241936;27;19972;-91
2024/04/17 08:10:03;;;;;;;;;;;;;;;13.07;57.09;100740.13;5237829;27;19935;-90
2024/04/17 08:12:28;;;;;;;;;;;;;;;13.23;57.30;100741.81;5222166;27;20580;-90
2024/04/17 08:14:54;;;;;;;;;;;;;;;13.47;57.21;100744.84;5215222;27;20381;-90
2024/04/17 08:17:19;;;;;;;;;;;;;;;13.72;56.89;100735.97;5237414;27;19968;-91
2024/04/17 08:19:44;;;;;;;;;;;;;;;13.93;55.56;100739.47;5251853;27;19931;-90
2024/04/17 08:22:09;;;;;;;;;;;;;;;14.05;55.53;100743.50;5236244;27;19932;-91
2024/04/17 08:24:35;;;;;;;;;;;;;;;14.15;54.93;100738.09;5251595;27;19938;-91
2024/04/17 08:27:00;;;;;;;;;;;;;;;14.22;54.55;100745.91;5235621;27;19932;-90
2024/04/17 08:29:25;;;;;;;;;;;;;;;14.26;53.45;100740.78;5228972;27;19932;-90
2024/04/17 08:31:50;;;;;;;;;;;;;;;14.19;52.79;100744.56;5241396;27;19967;-92
2024/04/17 08:34:15;;;;;;;;;;;;;;;14.09;50.29;100739.19;5235752;27;19939;-90
2024/04/17 08:36:41;;;;;;;;;;;;;;;14.03;52.33;100745.66;5246295;27;20016;-91
2024/04/17 08:39:06;;;;;;;;;;;;;;;14.03;51.56;100748.38;5231125;27;19941;-90
2024/04/17 08:41:34;;;;;;;;;;;;;;;14.06;52.61;100745.13;5238183;27;20024;-91
2024/04/17 08:44:02;;;;;;;;;;;;;;;14.09;52.70;100741.88;5242549;27;20002;-90
2024/04/17 08:46:28;;;;;;;;;;;;;;;14.16;51.71;100742.41;5247973;27;19964;-91
2024/04/17 08:48:54;;;;;;;;;;;;;;;14.14;52.09;100743.75;5238687;27;20380;-90
2024/04/17 08:51:20;;;;;;;;;;;;;;;14.16;52.17;100726.22;5227043;27;20545;-90
2024/04/17 08:53:46;;;;;;;;;;;;;;;14.21;52.45;100744.28;5225067;27;19933;-90
2024/04/17 08:56:12;;;;;;;;;;;;;;;14.21;52.01;100742.41;5244623;27;19934;-90
2024/04/17 08:58:39;;;;;;;;;;;;;;;14.18;51.47;100744.81;5233535;27;19931;-91
2024/04/17 09:01:04;;;;;;;;;;;;;;;14.20;52.05;100737.28;5218013;27;19936;-90
2024/04/17 09:03:32;;;;;;;;;;;;;;;14.29;51.87;100742.94;5219544;27;20023;-90
2024/04/17 09:05:57;;;;;;;;;;;;;;;14.45;51.68;100747.25;5241526;27;19939;-90
2024/04/17 09:08:23;;;;;;;;;;;;;;;14.59;50.18;100734.81;5214888;27;19932;-90
2024/04/17 09:10:49;;;;;;;;;;;;;;;14.79;51.07;100733.91;5235070;27;19943;-90
2024/04/17 09:13:15;;;;;;;;;;;;;;;15.03;51.01;100731.38;5226648;27;19939;-90
2024/04/17 09:15:40;;;;;;;;;;;;;;;15.30;50.73;100728.25;5239660;27;19935;-91
2024/04/17 09:18:09;;;;;;;;;;;;;;;15.46;49.88;100723.56;5229418;27;19979;-90
2024/04/17 09:20:35;;;;;;;;;;;;;;;15.46;50.09;100721.66;5245774;27;19932;-91
2024/04/17 09:23:00;;;;;;;;;;;;;;;15.48;50.52;100719.50;5234069;27;19936;-90
2024/04/17 09:25:26;;;;;;;;;;;;;;;15.53;50.12;100721.34;5250809;27;19932;-91
2024/04/17 09:27:52;;;;;;;;;;;;;;;15.49;49.76;100725.69;5239376;27;19932;-90
2024/04/17 09:30:17;;;;;;;;;;;;;;;15.54;50.07;100728.34;5230436;27;19943;-90
2024/04/17 09:32:42;;;;;;;;;;;;;;;15.62;50.63;100733.19;5239338;27;19939;-90
2024/04/17 09:35:11;;;;;;;;;;;;;;;15.76;49.54;100722.53;5246509;27;19940;-90
2024/04/17 09:37:39;;;;;;;;;;;;;;;15.99;50.05;100725.31;5226916;27;19940;-90
2024/04/17 09:40:08;;;;;;;;;;;;;;;16.25;48.99;100733.16;5236197;27;20261;-90
2024/04/17 09:42:35;;;;;;;;;;;;;;;16.42;49.29;100724.63;5245909;27;19939;-91
2024/04/17 09:45:04;;;;;;;;;;;;;;;16.56;49.77;100723.63;5247668;27;19943;-90
2024/04/17 09:47:29;;;;;;;;;;;;;;;16.58;47.13;100726.84;5238611;27;19939;-90
2024/04/17 09:49:56;;;;;;;;;;;;;;;16.40;48.06;100721.41;5250335;27;19943;-90
2024/04/17 09:52:21;;;;;;;;;;;;;;;16.25;47.01;100725.06;5249154;27;19950;-89
2024/04/17 09:54:47;;;;;;;;;;;;;;;16.26;48.39;100726.66;5247942;27;19935;-90
2024/04/17 09:57:12;;;;;;;;;;;;;;;16.31;48.25;100726.59;5217448;27;19933;-90
2024/04/17 09:59:38;;;;;;;;;;;;;;;16.32;47.29;100725.50;5234165;27;19943;-90
2024/04/17 10:02:04;;;;;;;;;;;;;;;16.23;47.65;100729.94;5240687;27;20012;-90
2024/04/17 10:04:30;;;;;;;;;;;;;;;16.10;46.71;100725.22;5254868;27;19936;-90
2024/04/17 10:06:56;;;;;;;;;;;;;;;15.98;46.50;100731.81;5230291;27;19936;-90
2024/04/17 10:09:22;;;;;;;;;;;;;;;15.89;47.43;100727.28;5221705;27;19932;-90
2024/04/17 10:11:50;;;;;;;;;;;;;;;15.85;47.43;100728.97;5264554;27;19959;-91
2024/04/17 10:14:17;;;;;;;;;;;;;;;15.81;45.39;100727.91;5243098;27;19931;-90
2024/04/17 10:16:42;;;;;;;;;;;;;;;15.70;45.97;100719.09;5220299;27;19938;-90
2024/04/17 10:19:08;;;;;;;;;;;;;;;15.62;46.69;100725.91;5236488;27;19931;-90
2024/04/17 10:21:33;;;;;;;;;;;;;;;15.66;46.92;100720.75;5244932;27;21380;-90
2024/04/17 10:24:17;;;;;;;;;;;;;;;15.67;46.77;100725.06;5230185;27;19943;-90
2024/04/17 10:26:42;;;;;;;;;;;;;;;15.66;47.30;100721.53;5238830;27;20002;-90
2024/04/17 10:29:15;;;;;;;;;;;;;;;15.69;46.78;100717.47;5250669;27;19939;-91
2024/04/17 10:31:40;;;;;;;;;;;;;;;15.71;48.09;100716.09;5227286;27;20244;-89
2024/04/17 10:34:06;;;;;;;;;;;;;;;15.71;46.70;100718.78;5247673;27;19940;-90
2024/04/17 10:36:32;;;;;;;;;;;;;;;15.83;46.46;100723.84;5227816;27;19968;-90
2024/04/17 10:38:59;;;;;;;;;;;;;;;15.95;46.18;100724.25;5225688;27;19932;-90
2024/04/17 10:41:27;;;;;;;;;;;;;;;15.90;44.45;100716.19;5232493;27;19935;-90
2024/04/17 10:43:52;;;;;;;;;;;;;;;15.85;44.83;100718.16;5225930;27;19932;-90
2024/04/17 10:46:21;;;;;;;;;;;;;;;15.76;44.98;100715.25;5231591;27;19939;-90
2024/04/17 10:48:47;;;;;;;;;;;;;;;15.74;45.83;100713.91;5254541;27;19932;-90
2024/04/17 10:51:14;;;;;;;;;;;;;;;15.79;46.77;100720.06;5229267;27;19972;-91
2024/04/17 10:53:41;;;;;;;;;;;;;;;16.02;45.84;100719.34;5219086;27;19943;-90
2024/04/17 10:56:08;;;;;;;;;;;;;;;16.32;45.27;100725.50;5226905;27;19932;-91
2024/04/17 10:58:33;;;;;;;;;;;;;;;16.38;45.00;100721.69;5228997;27;20411;-90
2024/04/17 11:01:00;;;;;;;;;;;;;;;16.28;46.14;100728.00;5256765;27;19939;-90
2024/04/17 11:03:25;;;;;;;;;;;;;;;16.10;45.42;100727.91;5213806;27;19932;-90
2024/04/17 11:05:51;;;;;;;;;;;;;;;15.88;45.50;100736.50;5245257;27;19938;-90
2024/04/17 11:08:16;;;;;;;;;;;;;;;15.64;45.65;100733.72;5213796;27;19943;-89
2024/04/17 11:10:42;;;;;;;;;;;;;;;15.53;46.36;100742.94;5239312;27;19931;-90
2024/04/17 11:13:13;;;;;;;;;;;;;;;15.41;46.66;100741.38;5232956;27;19932;-89
2024/04/17 11:15:38;;;;;;;;;;;;;;;15.27;46.24;100750.41;5242860;27;19940;-90
2024/04/17 11:18:03;;;;;;;;;;;;;;;15.24;47.01;100750.94;5244812;27;19931;-90
2024/04/17 11:20:28;;;;;;;;;;;;;;;15.22;47.43;100747.72;5236905;27;19931;-90
2024/04/17 11:22:54;;;;;;;;;;;;;;;15.15;47.09;100742.63;5237223;27;19938;-90
2024/04/17 11:25:19;;;;;;;;;;;;;;;15.15;47.52;100741.84;5251467;27;19935;-90
2024/04/17 11:27:44;;;;;;;;;;;;;;;15.14;47.63;100746.44;5254036;27;19939;-89
2024/04/17 11:30:16;;;;;;;;;;;;;;;15.17;47.35;100745.06;5245271;27;19938;-90
2024/04/17 11:32:41;;;;;;;;;;;;;;;15.12;46.80;100748.59;5247968;27;20381;-91
2024/04/17 11:35:14;;;;;;;;;;;;;;;15.09;47.17;100747.28;5234197;27;19959;-90
2024/04/17 11:37:50;;;;;;;;;;;;;;;14.98;47.36;100752.97;5237132;27;19938;-90
2024/04/17 11:40:15;;;;;;;;;;;;;;;14.92;47.25;100752.22;5226189;27;19932;-89
2024/04/17 11:42:40;;;;;;;;;;;;;;;14.94;46.55;100758.13;5236989;27;19931;-91
2024/04/17 11:45:08;;;;;;;;;;;;;;;14.96;45.86;100757.84;5235105;27;19932;-90
2024/04/17 11:47:33;;;;;;;;;;;;;;;14.87;45.24;100759.50;5218490;27;19938;-90
2024/04/17 11:49:58;;;;;;;;;;;;;;;14.79;45.57;100756.28;5228266;27;19932;-90
2024/04/17 11:52:23;;;;;;;;;;;;;;;14.78;46.04;100760.06;5233025;27;19936;-91
2024/04/17 11:54:48;;;;;;;;;;;;;;;14.82;45.88;100754.94;5219325;27;19931;-90
2024/04/17 11:57:14;;;;;;;;;;;;;;;14.88;46.13;100761.09;5225663;27;19940;-91
2024/04/17 11:59:39;;;;;;;;;;;;;;;14.95;46.26;100767.03;5251812;27;19983;-90
2024/04/17 12:02:05;;;;;;;;;;;;;;;15.04;45.83;100770.75;5251486;27;19939;-90
2024/04/17 12:04:30;;;;;;;;;;;;;;;15.10;45.79;100766.97;5242804;27;20006;-90
2024/04/17 12:06:56;;;;;;;;;;;;;;;15.18;46.02;100769.06;5254954;27;19932;-90
2024/04/17 12:09:21;;;;;;;;;;;;;;;15.23;45.23;100779.03;5227685;27;19932;-90
2024/04/17 12:11:46;;;;;;;;;;;;;;;15.29;45.44;100776.03;5251766;27;19935;-91
2024/04/17 12:14:12;;;;;;;;;;;;;;;15.30;45.47;100774.16;5238807;27;20638;-90
2024/04/17 12:16:37;;;;;;;;;;;;;;;15.33;45.70;100768.19;5231480;27;19936;-90
2024/04/17 12:19:05;;;;;;;;;;;;;;;15.39;45.62;100775.97;5247743;27;19964;-91
2024/04/17 12:21:30;;;;;;;;;;;;;;;15.43;45.54;100773.50;5223308;27;19943;-90
2024/04/17 12:23:55;;;;;;;;;;;;;;;15.39;45.67;100767.88;5258849;27;20002;-90
2024/04/17 12:29:05;;;;;;;;;;;;;;;15.13;46.17;100776.41;5245041;27;19947;-90
2024/04/17 12:31:30;;;;;;;;;;;;;;;15.03;45.96;100778.03;5241112;27;19947;-90
2024/04/17 12:33:55;;;;;;;;;;;;;;;14.88;45.49;100771.91;5234307;27;19938;-90
2024/04/17 12:36:20;;;;;;;;;;;;;;;14.70;46.09;100776.81;5238245;27;19939;-90